Time;durP1;ratioP1;P1;durP2;ratioP2;P2;SDS_P1;SDS_P2;PMS_P1;PMS_P2;Temp;Humidity;BMP_temperature;BMP_pressure;BME280_temperature;BME280_humidity;BME280_pressure;Samples;Min_cycle;Max_cycle;Signal;HPM_P1;HPM_P2
2021/05/18 00:00:11;;;;;;;15.90;11.60;;;22.30;51.90;;;;;;5116122;27;20097;-39
2021/05/18 00:02:38;;;;;;;16.20;11.73;;;22.30;51.90;;;;;;5132075;27;20563;-39
2021/05/18 00:05:08;;;;;;;15.02;11.40;;;22.30;51.90;;;;;;5117846;27;20130;-39
2021/05/18 00:07:37;;;;;;;14.48;10.90;;;22.30;51.90;;;;;;5130346;27;20047;-40
2021/05/18 00:12:51;;;;;;;17.15;12.60;;;22.30;52.00;;;;;;5113768;28;20105;-43
2021/05/18 00:15:21;;;;;;;16.05;11.70;;;22.30;51.90;;;;;;5115487;27;20097;-40
2021/05/18 00:17:51;;;;;;;15.35;11.38;;;22.30;52.00;;;;;;5115977;27;20039;-40
2021/05/18 00:20:19;;;;;;;15.25;11.25;;;22.30;51.90;;;;;;5116019;27;20093;-40
2021/05/18 00:22:47;;;;;;;16.65;12.27;;;22.30;51.90;;;;;;5115667;27;20073;-42
2021/05/18 00:25:15;;;;;;;14.52;11.07;;;22.30;51.90;;;;;;5115904;27;20047;-39
2021/05/18 00:27:43;;;;;;;14.52;10.77;;;22.30;52.00;;;;;;5097604;28;20093;-40
2021/05/18 00:30:12;;;;;;;15.10;10.88;;;22.30;52.00;;;;;;5125663;27;20415;-43
2021/05/18 00:32:39;;;;;;;14.43;11.00;;;22.30;52.00;;;;;;5124189;27;20051;-43
2021/05/18 00:35:10;;;;;;;15.93;11.57;;;22.30;52.00;;;;;;5116816;27;20082;-40
2021/05/18 00:37:37;;;;;;;14.30;10.95;;;22.30;52.00;;;;;;5114437;28;20074;-40
2021/05/18 00:40:08;;;;;;;15.48;11.30;;;22.30;52.00;;;;;;5114164;27;20096;-41
2021/05/18 00:42:56;;;;;;;15.32;10.93;;;22.30;52.00;;;;;;5122157;27;20432;-42
2021/05/18 00:45:41;;;;;;;16.48;10.98;;;22.30;52.00;;;;;;5123779;27;20044;-41
2021/05/18 00:48:09;;;;;;;13.75;10.57;;;22.30;52.00;;;;;;5115052;27;20043;-43
2021/05/18 00:50:41;;;;;;;14.05;10.90;;;22.30;52.00;;;;;;5113593;28;20097;-44
2021/05/18 00:53:08;;;;;;;14.90;11.07;;;22.30;52.00;;;;;;5110920;27;20043;-41
2021/05/18 00:55:41;;;;;;;13.40;10.45;;;22.30;52.00;;;;;;5113049;28;20104;-41
2021/05/18 01:00:58;;;;;;;13.35;9.82;;;22.30;52.00;;;;;;5110650;28;20457;-40
2021/05/18 01:03:27;;;;;;;14.40;10.55;;;22.30;52.00;;;;;;5111213;28;20101;-41
2021/05/18 01:08:42;;;;;;;14.52;10.43;;;22.30;52.00;;;;;;5111113;28;20055;-43
2021/05/18 01:11:11;;;;;;;14.50;10.45;;;22.30;52.00;;;;;;5112053;28;20043;-40
2021/05/18 01:13:39;;;;;;;14.25;10.85;;;22.30;52.00;;;;;;5108769;28;20157;-39
2021/05/18 01:16:09;;;;;;;15.23;11.20;;;22.30;52.00;;;;;;5111620;28;20048;-42
2021/05/18 01:18:39;;;;;;;14.02;10.55;;;22.30;52.00;;;;;;5111390;28;20197;-40
2021/05/18 01:21:07;;;;;;;13.80;10.45;;;22.30;52.00;;;;;;5110762;27;20048;-40
2021/05/18 01:23:35;;;;;;;13.02;10.27;;;22.30;52.00;;;;;;5111993;28;20108;-45
2021/05/18 01:26:03;;;;;;;14.73;10.27;;;22.30;52.00;;;;;;5109538;28;20055;-45
2021/05/18 01:28:31;;;;;;;13.60;10.10;;;22.30;52.00;;;;;;5111784;28;20104;-41
2021/05/18 01:31:00;;;;;;;13.95;10.35;;;22.30;52.00;;;;;;5111330;28;20055;-40
2021/05/18 01:33:27;;;;;;;15.35;10.50;;;22.30;52.00;;;;;;5109996;28;20108;-41
2021/05/18 01:35:57;;;;;;;13.73;10.25;;;22.30;52.00;;;;;;5111870;28;20548;-40
2021/05/18 01:38:38;;;;;;;13.73;10.48;;;22.30;52.00;;;;;;5110905;27;20035;-42
2021/05/18 01:43:53;;;;;;;13.90;10.27;;;22.30;52.00;;;;;;5111484;28;20086;-41
2021/05/18 01:46:23;;;;;;;12.57;10.10;;;22.30;52.00;;;;;;5109723;27;20051;-40
2021/05/18 01:48:58;;;;;;;12.98;10.00;;;22.30;52.00;;;;;;5111724;28;20410;-39
2021/05/18 01:51:32;;;;;;;14.07;10.73;;;22.30;52.00;;;;;;5110821;28;20048;-39
2021/05/18 01:54:05;;;;;;;12.70;9.23;;;22.30;52.00;;;;;;5109473;28;20039;-40
2021/05/18 01:56:50;;;;;;;12.77;10.00;;;22.20;51.90;;;;;;5101143;28;20044;-39
2021/05/18 01:59:24;;;;;;;15.32;10.25;;;22.30;52.00;;;;;;5110661;28;20074;-40
2021/05/18 02:01:52;;;;;;;;;;;22.20;51.90;;;;;;5110407;27;20097;-40
2021/05/18 02:04:28;;;;;;;12.90;9.82;;;22.20;51.90;;;;;;5110850;28;19958;-40
2021/05/18 02:06:56;;;;;;;12.10;9.00;;;22.30;52.00;;;;;;5110228;28;20091;-40
2021/05/18 02:09:23;;;;;;;13.85;10.18;;;22.20;51.90;;;;;;5100463;28;20051;-41
2021/05/18 02:11:51;;;;;;;13.02;9.95;;;22.30;52.10;;;;;;5110200;28;20063;-40
2021/05/18 02:14:25;;;;;;;13.88;10.48;;;22.20;52.00;;;;;;5107984;28;20048;-39
2021/05/18 02:16:57;;;;;;;14.30;9.85;;;22.20;52.00;;;;;;5110749;28;20560;-40
2021/05/18 02:19:43;;;;;;;12.50;9.27;;;22.20;52.00;;;;;;5110712;28;20448;-39
2021/05/18 02:22:22;;;;;;;13.63;10.13;;;22.20;51.90;;;;;;5110260;28;20096;-40
2021/05/18 02:25:03;;;;;;;11.88;9.15;;;22.20;52.00;;;;;;5109986;28;20096;-40
2021/05/18 02:27:31;;;;;;;12.38;9.55;;;22.20;51.90;;;;;;5110126;28;20055;-40
2021/05/18 02:29:59;;;;;;;13.75;9.95;;;22.30;52.60;;;;;;5109783;28;20100;-41
2021/05/18 02:32:28;;;;;;;12.77;9.38;;;22.30;52.00;;;;;;5110850;28;20407;-40
2021/05/18 02:34:55;;;;;;;12.05;9.35;;;22.20;52.00;;;;;;5109194;28;20040;-40
2021/05/18 02:37:22;;;;;;;13.20;10.25;;;22.20;52.00;;;;;;5110380;28;20127;-40
2021/05/18 02:39:50;;;;;;;12.52;9.63;;;22.20;51.90;;;;;;5110847;28;20040;-41
2021/05/18 02:42:18;;;;;;;14.18;10.07;;;22.20;51.90;;;;;;5109203;28;20495;-40
2021/05/18 02:49:58;;;;;;;11.57;9.25;;;22.30;52.00;;;;;;5109852;28;20100;-39
2021/05/18 02:52:25;;;;;;;12.15;9.10;;;22.30;52.10;;;;;;5110362;28;20048;-40
2021/05/18 02:54:55;;;;;;;13.43;9.30;;;22.20;51.90;;;;;;5109663;28;20090;-40
2021/05/18 02:57:36;;;;;;;12.68;9.38;;;22.30;52.00;;;;;;5110988;28;20071;-40
2021/05/18 03:00:13;;;;;;;12.30;8.82;;;22.30;52.00;;;;;;5110127;28;20536;-40
2021/05/18 03:02:40;;;;;;;12.70;9.93;;;22.20;52.00;;;;;;5096850;28;20043;-39
2021/05/18 03:05:09;;;;;;;13.20;9.45;;;22.30;52.10;;;;;;5110265;28;20097;-39
2021/05/18 03:07:37;;;;;;;12.20;8.85;;;22.20;51.90;;;;;;5110135;28;20150;-39
2021/05/18 03:10:05;;;;;;;13.07;9.65;;;22.20;52.00;;;;;;5110616;28;20086;-39
2021/05/18 03:12:32;;;;;;;12.23;9.55;;;22.20;52.00;;;;;;5110296;28;20500;-39
2021/05/18 03:15:00;;;;;;;11.90;8.80;;;22.20;52.00;;;;;;5107473;28;20052;-41
2021/05/18 03:17:29;;;;;;;11.57;8.95;;;22.20;52.00;;;;;;5110099;28;20097;-39
2021/05/18 03:19:57;;;;;;;13.52;9.63;;;22.30;52.00;;;;;;5109948;28;20384;-39
2021/05/18 03:22:24;;;;;;;11.88;8.77;;;22.20;52.00;;;;;;5109368;28;20611;-39
2021/05/18 03:24:52;;;;;;;10.05;8.23;;;22.30;52.00;;;;;;5110445;28;20559;-39
2021/05/18 03:27:19;;;;;;;13.15;9.30;;;22.20;51.90;;;;;;5111460;28;20380;-39
2021/05/18 03:29:49;;;;;;;11.70;8.75;;;22.20;52.00;;;;;;5113424;28;20398;-40
2021/05/18 03:35:04;;;;;;;11.90;9.25;;;22.20;51.90;;;;;;5111981;28;20063;-40
2021/05/18 03:37:45;;;;;;;12.43;9.10;;;22.20;52.00;;;;;;5113440;28;20047;-39
2021/05/18 03:40:14;;;;;;;11.35;8.57;;;22.20;52.00;;;;;;5113177;28;20047;-40
2021/05/18 03:42:47;;;;;;;11.23;8.38;;;22.20;51.90;;;;;;5112488;28;20086;-39
2021/05/18 03:45:21;;;;;;;10.95;8.25;;;22.20;52.00;;;;;;5113338;28;20151;-40
2021/05/18 03:53:43;;;;;;;13.05;9.15;;;22.30;52.00;;;;;;5113233;28;20100;-40
2021/05/18 04:04:51;;;;;;;11.45;8.75;;;22.20;52.00;;;;;;5009926;28;20049;-41
2021/05/18 04:18:14;;;;;;;11.82;8.50;;;22.20;52.00;;;;;;4951132;28;20043;-40
2021/05/18 04:26:11;;;;;;;10.82;8.48;;;22.30;52.10;;;;;;4951934;28;20054;-43
2021/05/18 04:50:56;;;;;;;11.70;8.30;;;22.20;52.00;;;;;;5039055;28;20170;-41
2021/05/18 04:53:34;;;;;;;10.10;7.90;;;22.20;52.00;;;;;;5111018;28;20457;-45
2021/05/18 05:01:42;;;;;;;9.85;7.63;;;22.20;52.00;;;;;;5112442;28;20044;-40
2021/05/18 05:14:37;;;;;;;9.48;7.53;;;22.20;52.00;;;;;;5110387;28;20081;-39
2021/05/18 05:17:06;;;;;;;10.40;7.88;;;22.20;52.10;;;;;;5111934;28;20117;-40
2021/05/18 05:19:35;;;;;;;10.38;7.93;;;22.20;52.00;;;;;;5111114;27;20055;-40
2021/05/18 05:22:04;;;;;;;10.02;7.60;;;22.20;52.10;;;;;;5112126;28;20048;-41
2021/05/18 05:24:34;;;;;;;10.05;7.43;;;22.30;52.10;;;;;;5111416;27;20044;-42
2021/05/18 05:27:01;;;;;;;10.45;7.95;;;22.20;52.00;;;;;;5110313;28;20087;-39
2021/05/18 05:29:28;;;;;;;10.82;7.47;;;22.20;52.00;;;;;;5111304;28;20094;-39
2021/05/18 05:31:56;;;;;;;9.63;7.28;;;22.20;52.00;;;;;;5109864;28;20055;-45
2021/05/18 05:34:23;;;;;;;10.48;7.55;;;22.20;52.00;;;;;;5111182;28;20040;-39
2021/05/18 05:36:50;;;;;;;9.77;7.53;;;22.20;52.00;;;;;;5098927;28;20051;-40
2021/05/18 05:41:45;;;;;;;9.25;7.45;;;22.30;52.10;;;;;;5111223;28;20130;-42
2021/05/18 05:44:12;;;;;;;10.10;7.32;;;22.20;52.00;;;;;;5110503;27;20047;-41
2021/05/18 05:46:40;;;;;;;10.18;7.72;;;22.30;52.10;;;;;;5110967;28;20043;-40
2021/05/18 05:49:07;;;;;;;10.43;7.88;;;22.20;52.00;;;;;;5110386;28;20431;-41
2021/05/18 05:51:34;;;;;;;9.02;6.95;;;22.30;52.10;;;;;;5111043;28;20051;-39
2021/05/18 05:54:01;;;;;;;9.00;6.90;;;22.30;52.10;;;;;;5111202;28;20096;-42
2021/05/18 05:56:29;;;;;;;8.43;6.88;;;22.20;52.00;;;;;;5110317;27;20043;-41
2021/05/18 05:59:00;;;;;;;9.10;7.10;;;22.20;52.00;;;;;;5110064;28;20071;-43
2021/05/18 06:01:31;;;;;;;9.13;7.28;;;22.20;52.00;;;;;;5111071;28;20090;-40
2021/05/18 06:03:59;;;;;;;9.85;7.43;;;22.30;52.10;;;;;;5109751;28;20510;-40
2021/05/18 06:06:27;;;;;;;9.02;7.13;;;22.30;52.10;;;;;;5100400;28;20048;-40
2021/05/18 06:08:54;;;;;;;9.95;7.68;;;22.20;52.00;;;;;;5111087;27;20043;-40
2021/05/18 06:41:55;;;;;;;8.90;6.63;;;22.20;52.00;;;;;;5074713;28;20051;-41
2021/05/18 06:49:45;;;;;;;8.90;6.70;;;22.30;52.10;;;;;;5073996;28;20110;-39
2021/05/18 06:52:12;;;;;;;8.23;6.63;;;22.30;52.10;;;;;;5075315;28;20283;-39
2021/05/18 06:54:39;;;;;;;8.00;6.50;;;22.20;52.00;;;;;;5076681;28;20474;-40
2021/05/18 06:57:07;;;;;;;10.07;7.28;;;22.30;52.10;;;;;;5107636;28;20067;-40
2021/05/18 07:02:20;;;;;;;9.23;6.72;;;22.30;52.10;;;;;;5114212;28;20040;-41
2021/05/18 07:04:52;;;;;;;9.55;7.05;;;22.30;52.10;;;;;;5113069;28;20511;-42
2021/05/18 07:07:21;;;;;;;8.55;6.60;;;22.20;51.90;;;;;;5114850;27;20096;-41
2021/05/18 07:09:49;;;;;;;8.35;6.65;;;22.30;52.10;;;;;;5113828;28;20079;-43
2021/05/18 07:12:16;;;;;;;7.72;5.97;;;22.30;52.10;;;;;;5112912;28;20051;-40
2021/05/18 07:14:43;;;;;;;8.30;6.55;;;22.30;52.00;;;;;;5101856;28;20055;-40
2021/05/18 07:17:10;;;;;;;7.72;6.30;;;22.30;52.10;;;;;;5111343;28;20048;-42
2021/05/18 07:19:38;;;;;;;8.68;6.60;;;22.30;52.00;;;;;;5113458;28;20183;-41
2021/05/18 07:22:07;;;;;;;7.70;6.43;;;22.30;52.10;;;;;;5113970;28;20047;-42
2021/05/18 07:24:34;;;;;;;9.00;6.85;;;22.30;52.00;;;;;;5112754;28;20051;-41
2021/05/18 07:27:03;;;;;;;8.23;6.70;;;22.30;52.00;;;;;;5113543;28;20047;-41
2021/05/18 07:29:31;;;;;;;8.00;6.20;;;22.30;52.10;;;;;;5112861;28;20241;-41
2021/05/18 07:31:58;;;;;;;7.90;5.80;;;22.30;52.00;;;;;;5113476;28;20092;-41
2021/05/18 07:34:26;;;;;;;8.30;6.05;;;22.30;52.10;;;;;;5114016;28;20051;-40
2021/05/18 07:36:53;;;;;;;7.75;5.93;;;22.30;52.00;;;;;;5113006;27;20096;-39
2021/05/18 07:39:20;;;;;;;7.90;6.78;;;22.30;52.00;;;;;;5113469;28;20074;-41
2021/05/18 07:41:47;;;;;;;7.50;5.93;;;22.30;52.00;;;;;;5112597;28;20047;-41
2021/05/18 07:44:14;;;;;;;8.27;5.85;;;22.30;52.00;;;;;;5112559;28;20108;-44
2021/05/18 07:46:43;;;;;;;7.97;6.20;;;22.30;52.10;;;;;;5114122;28;20112;-42
2021/05/18 07:49:26;;;;;;;8.98;6.78;;;22.30;52.10;;;;;;5111695;27;20122;-43
2021/05/18 07:59:57;;;;;;;7.53;5.93;;;22.30;52.10;;;;;;5112456;28;20043;-43
2021/05/18 08:05:18;;;;;;;7.78;5.93;;;22.30;52.10;;;;;;5111572;28;20720;-41
2021/05/18 08:07:52;;;;;;;7.82;5.65;;;22.30;52.00;;;;;;5113545;27;20047;-39
2021/05/18 08:10:35;;;;;;;8.23;6.25;;;22.30;52.10;;;;;;5112752;28;20504;-42
2021/05/18 08:13:02;;;;;;;7.80;5.70;;;22.30;52.10;;;;;;5110042;28;20044;-41
2021/05/18 08:15:39;;;;;;;7.90;6.05;;;22.30;52.10;;;;;;5113085;28;20100;-41
2021/05/18 09:50:52;;;;;;;6.60;5.28;;;22.30;52.10;;;;;;5026853;28;20556;-42
2021/05/18 10:27:06;;;;;;;6.25;5.03;;;22.40;52.10;;;;;;5109377;28;20441;-39
2021/05/18 10:35:38;;;;;;;6.55;5.03;;;22.40;52.10;;;;;;5111281;28;20043;-42
2021/05/18 10:38:07;;;;;;;6.63;5.07;;;22.40;52.00;;;;;;5113465;28;20142;-41
2021/05/18 10:40:39;;;;;;;6.45;4.78;;;22.40;52.00;;;;;;5115065;28;20123;-41
2021/05/18 10:43:27;;;;;;;7.38;5.05;;;22.40;52.00;;;;;;5113823;27;20555;-44
2021/05/18 10:45:55;;;;;;;5.82;4.85;;;22.40;52.00;;;;;;5113800;27;20047;-40
2021/05/18 10:48:31;;;;;;;6.03;4.75;;;22.40;52.00;;;;;;5114159;28;20100;-45
2021/05/18 10:51:20;;;;;;;6.00;4.80;;;22.40;51.90;;;;;;5112354;28;20055;-46
2021/05/18 10:54:18;;;;;;;6.03;4.57;;;22.40;52.00;;;;;;5113805;28;20104;-44
2021/05/18 10:56:59;;;;;;;6.90;5.03;;;22.40;52.00;;;;;;5115165;28;20104;-41
2021/05/18 10:59:30;;;;;;;5.80;4.60;;;22.40;52.00;;;;;;5113430;28;20101;-43
2021/05/18 11:02:08;;;;;;;5.75;4.47;;;22.40;52.00;;;;;;5113330;28;20403;-39
2021/05/18 11:04:44;;;;;;;5.65;4.35;;;22.40;52.10;;;;;;5114739;28;20075;-38
2021/05/18 11:07:16;;;;;;;6.13;4.38;;;22.40;52.10;;;;;;5113487;27;20059;-40
2021/05/18 11:09:43;;;;;;;7.03;4.80;;;22.40;52.00;;;;;;5113588;27;20055;-39
2021/05/18 11:12:19;;;;;;;5.63;4.40;;;22.40;52.00;;;;;;5114524;28;20627;-40
2021/05/18 11:14:58;;;;;;;5.55;4.32;;;22.40;52.00;;;;;;5111310;28;20039;-43
2021/05/18 11:17:31;;;;;;;5.40;4.20;;;22.40;52.10;;;;;;5114758;27;20623;-41
2021/05/18 11:20:13;;;;;;;5.70;4.50;;;22.40;52.00;;;;;;5113411;28;20047;-40
2021/05/18 11:25:29;;;;;;;5.75;4.55;;;22.40;52.00;;;;;;5114120;28;20075;-41
2021/05/18 11:28:12;;;;;;;5.15;4.07;;;22.40;52.00;;;;;;5113384;28;20052;-41
2021/05/18 11:30:41;;;;;;;5.68;4.50;;;22.40;52.00;;;;;;5111879;28;20499;-39
2021/05/18 11:33:09;;;;;;;6.38;4.78;;;22.40;52.00;;;;;;5113791;28;20478;-43
2021/05/18 11:35:36;;;;;;;5.65;4.47;;;22.40;52.00;;;;;;5135136;27;20566;-40
2021/05/18 11:38:14;;;;;;;5.68;4.50;;;22.40;52.00;;;;;;5113234;28;20074;-41
2021/05/18 11:40:53;;;;;;;5.80;4.47;;;22.40;52.00;;;;;;5113674;28;20050;-39
2021/05/18 11:43:24;;;;;;;5.55;4.38;;;22.40;52.00;;;;;;5111955;28;20048;-39
2021/05/18 11:46:03;;;;;;;5.78;4.55;;;22.40;52.00;;;;;;5112776;28;20086;-39
2021/05/18 11:48:32;;;;;;;6.22;4.32;;;22.40;52.00;;;;;;5101890;28;20059;-39
2021/05/18 11:51:14;;;;;;;6.05;4.65;;;22.40;52.10;;;;;;5101372;28;20047;-40
2021/05/18 11:53:48;;;;;;;5.47;4.35;;;22.40;52.10;;;;;;5113420;28;20387;-40
2021/05/18 11:56:15;;;;;;;;;;;22.40;52.10;;;;;;5113280;28;20100;-39
2021/05/18 11:58:43;;;;;;;4.97;3.88;;;22.40;52.10;;;;;;5112060;27;19920;-39
2021/05/18 12:01:10;;;;;;;5.85;4.40;;;22.40;52.10;;;;;;5114010;28;20388;-40
2021/05/18 12:03:37;;;;;;;5.38;4.45;;;22.40;52.10;;;;;;5111549;28;20088;-41
2021/05/18 12:06:06;;;;;;;6.03;4.38;;;22.40;52.10;;;;;;5113200;28;20456;-39
2021/05/18 12:08:37;;;;;;;5.75;4.00;;;22.40;52.20;;;;;;5113314;28;20407;-40
2021/05/18 12:11:21;;;;;;;6.40;4.38;;;22.40;52.20;;;;;;5110758;28;20483;-39
2021/05/18 12:13:51;;;;;;;5.32;4.05;;;22.40;52.20;;;;;;5109662;27;20491;-39
2021/05/18 12:16:22;;;;;;;6.22;4.18;;;22.40;52.80;;;;;;5110760;27;20074;-40
2021/05/18 12:18:53;;;;;;;3.55;3.03;;;22.40;52.10;;;;;;5112238;27;20077;-40
2021/05/18 12:21:30;;;;;;;4.32;3.05;;;22.40;51.90;;;;;;5111433;28;20071;-38
2021/05/18 12:24:11;;;;;;;3.28;2.63;;;22.40;51.60;;;;;;5110919;28;20039;-40
2021/05/18 12:27:04;;;;;;;5.70;2.72;;;22.40;51.10;;;;;;5101900;28;20128;-42
2021/05/18 12:29:36;;;;;;;3.17;2.28;;;22.40;50.90;;;;;;5101289;27;20047;-44
2021/05/18 12:32:30;;;;;;;2.85;2.35;;;22.40;50.60;;;;;;5111367;27;20075;-44
2021/05/18 12:35:05;;;;;;;3.00;2.30;;;22.40;50.50;;;;;;5111186;28;20130;-42
2021/05/18 12:37:34;;;;;;;3.22;2.15;;;22.40;50.40;;;;;;5112270;28;20036;-39
2021/05/18 12:40:12;;;;;;;4.38;1.85;;;22.40;50.30;;;;;;5111698;27;20171;-39
2021/05/18 12:42:42;;;;;;;2.30;1.90;;;22.40;50.20;;;;;;5111717;28;20047;-39
2021/05/18 12:45:20;;;;;;;2.20;1.40;;;22.40;50.10;;;;;;5112560;28;20072;-43
2021/05/18 12:48:00;;;;;;;2.55;2.13;;;22.40;50.10;;;;;;5110503;28;20453;-39
2021/05/18 12:50:43;;;;;;;3.20;1.73;;;22.40;50.00;;;;;;5111499;28;20075;-41
2021/05/18 12:53:31;;;;;;;2.90;1.77;;;22.30;49.80;;;;;;5112689;27;20513;-40
2021/05/18 12:56:00;;;;;;;5.72;1.52;;;22.30;49.80;;;;;;5109915;28;20449;-43
2021/05/18 12:58:31;;;;;;;2.88;1.67;;;22.30;49.60;;;;;;5111885;28;20051;-40
2021/05/18 13:01:05;;;;;;;3.78;1.60;;;22.30;49.80;;;;;;5110527;28;20096;-39
2021/05/18 13:03:33;;;;;;;8.52;1.60;;;22.40;49.90;;;;;;5110960;27;20051;-40
2021/05/18 13:06:01;;;;;;;3.63;1.63;;;22.30;50.10;;;;;;5111856;28;20047;-39
2021/05/18 13:08:37;;;;;;;2.88;1.50;;;22.30;49.90;;;;;;5100533;28;20051;-40
2021/05/18 13:11:11;;;;;;;4.65;1.70;;;22.30;50.10;;;;;;5110879;28;20632;-39
2021/05/18 13:13:39;;;;;;;4.40;1.65;;;22.40;50.20;;;;;;5111497;28;20446;-42
2021/05/18 13:16:20;;;;;;;2.58;1.70;;;22.30;50.10;;;;;;5110452;27;20094;-39
2021/05/18 13:18:56;;;;;;;4.90;1.80;;;22.40;50.20;;;;;;5110633;28;20486;-42
2021/05/18 13:21:25;;;;;;;1.80;1.30;;;22.40;50.30;;;;;;5111964;28;20069;-40
2021/05/18 13:26:35;;;;;;;2.70;1.65;;;22.40;50.40;;;;;;5111838;28;20059;-43
2021/05/18 13:29:22;;;;;;;5.80;1.58;;;22.40;50.40;;;;;;5111150;28;20080;-41
2021/05/18 13:31:54;;;;;;;6.05;1.58;;;22.40;50.40;;;;;;5109950;28;20092;-41
2021/05/18 13:34:41;;;;;;;2.80;1.88;;;22.40;50.50;;;;;;5111585;28;20047;-40
2021/05/18 13:37:08;;;;;;;3.40;1.65;;;22.30;50.50;;;;;;5110876;28;20051;-41
2021/05/18 13:39:35;;;;;;;2.35;1.45;;;22.30;50.60;;;;;;5098184;28;20062;-40
2021/05/18 13:42:03;;;;;;;2.22;1.52;;;22.40;50.60;;;;;;5111738;28;20047;-42
2021/05/18 13:44:30;;;;;;;5.20;1.27;;;22.30;50.60;;;;;;5110476;27;20047;-43
2021/05/18 13:46:58;;;;;;;4.07;1.55;;;22.30;50.60;;;;;;5110509;28;20442;-40
2021/05/18 13:49:25;;;;;;;1.90;1.33;;;22.40;50.70;;;;;;5111144;28;20079;-39
2021/05/18 13:51:52;;;;;;;2.13;1.40;;;22.30;50.70;;;;;;5110513;27;20502;-42
2021/05/18 13:54:30;;;;;;;4.80;1.42;;;22.30;50.70;;;;;;5111508;28;20044;-42
2021/05/18 13:56:59;;;;;;;2.08;1.40;;;22.30;50.70;;;;;;5110351;28;20040;-40
2021/05/18 13:59:28;;;;;;;2.50;1.60;;;22.30;50.80;;;;;;5109878;28;20042;-40
2021/05/18 14:01:56;;;;;;;1.88;1.35;;;22.40;50.90;;;;;;5111270;28;20644;-42
2021/05/18 14:04:24;;;;;;;2.47;1.40;;;22.30;50.80;;;;;;5109887;28;20042;-40
2021/05/18 14:09:53;;;;;;;1.98;1.30;;;22.40;50.90;;;;;;5089932;28;20083;-43
2021/05/18 14:12:21;;;;;;;2.15;1.40;;;22.40;51.00;;;;;;5108782;28;20047;-42
2021/05/18 14:14:48;;;;;;;3.15;1.48;;;22.40;51.00;;;;;;5109569;28;20043;-42
2021/05/18 14:17:15;;;;;;;1.77;1.33;;;22.40;51.00;;;;;;5109746;28;20804;-41
2021/05/18 14:19:42;;;;;;;2.47;1.40;;;22.40;51.00;;;;;;5111001;28;20092;-43
2021/05/18 14:22:09;;;;;;;1.85;1.27;;;22.40;51.00;;;;;;5111195;28;20411;-39
2021/05/18 14:24:52;;;;;;;3.15;1.50;;;22.40;51.00;;;;;;5108472;28;20571;-44
2021/05/18 14:27:19;;;;;;;1.80;1.48;;;22.40;51.00;;;;;;5110373;28;20055;-40
2021/05/18 14:29:48;;;;;;;2.97;1.45;;;22.40;51.00;;;;;;5110940;28;20055;-40
2021/05/18 14:32:15;;;;;;;1.95;1.30;;;22.40;51.00;;;;;;5109348;28;20055;-40
2021/05/18 14:34:43;;;;;;;2.50;1.40;;;22.40;51.00;;;;;;5111318;28;20078;-40
2021/05/18 14:37:11;;;;;;;3.85;1.60;;;22.40;51.00;;;;;;5110363;28;20044;-41
2021/05/18 14:39:56;;;;;;;2.60;1.42;;;22.40;51.10;;;;;;5110509;28;20455;-40
2021/05/18 14:45:13;;;;;;;3.33;1.50;;;22.40;51.10;;;;;;5109333;28;20044;-39
2021/05/18 14:56:07;;;;;;;2.38;1.50;;;22.40;51.10;;;;;;5108977;28;20131;-40
2021/05/18 14:58:34;;;;;;;1.95;1.23;;;22.40;51.20;;;;;;5110588;28;20058;-39
2021/05/18 15:01:01;;;;;;;2.13;1.27;;;22.40;51.20;;;;;;5109137;28;20043;-40
2021/05/18 15:03:33;;;;;;;1.90;1.10;;;22.40;51.20;;;;;;5109446;28;20560;-40
2021/05/18 15:06:01;;;;;;;2.03;1.30;;;22.40;51.20;;;;;;5110073;28;20503;-39
2021/05/18 15:08:28;;;;;;;3.95;1.50;;;22.40;51.20;;;;;;5109657;28;20105;-39
2021/05/18 15:11:03;;;;;;;2.58;1.30;;;22.40;51.20;;;;;;5110110;28;20051;-41
2021/05/18 15:13:33;;;;;;;2.90;1.38;;;22.40;51.20;;;;;;5109065;28;20044;-39
2021/05/18 15:16:01;;;;;;;2.78;1.20;;;22.40;51.30;;;;;;5109393;28;20130;-45
2021/05/18 15:18:30;;;;;;;1.45;1.30;;;22.40;51.30;;;;;;5110110;28;20102;-40
2021/05/18 15:21:00;;;;;;;1.95;1.13;;;22.40;51.30;;;;;;5108571;28;20058;-42
2021/05/18 15:23:31;;;;;;;1.80;1.20;;;22.40;51.30;;;;;;5113966;27;20055;-40
2021/05/18 15:25:58;;;;;;;1.95;1.20;;;22.40;51.30;;;;;;5113531;28;20494;-41
2021/05/18 15:28:26;;;;;;;1.83;1.50;;;22.40;51.30;;;;;;5113167;27;20051;-40
2021/05/18 15:30:55;;;;;;;2.58;1.40;;;22.40;51.30;;;;;;5114349;28;20067;-39
2021/05/18 15:33:22;;;;;;;1.67;1.40;;;22.40;51.30;;;;;;5112268;28;20128;-40
2021/05/18 15:35:49;;;;;;;1.90;1.35;;;22.40;51.30;;;;;;5113416;28;20547;-39
2021/05/18 15:38:16;;;;;;;1.73;1.30;;;22.40;51.30;;;;;;5112778;28;20048;-41
2021/05/18 15:40:44;;;;;;;3.03;1.20;;;22.40;51.40;;;;;;5113069;27;20039;-39
2021/05/18 15:43:13;;;;;;;4.65;1.60;;;22.40;51.40;;;;;;5113385;28;20056;-39
2021/05/18 15:45:40;;;;;;;2.97;1.70;;;22.40;51.40;;;;;;5112697;28;20096;-39
2021/05/18 15:48:08;;;;;;;2.17;1.15;;;22.40;51.40;;;;;;5112685;28;20100;-40
2021/05/18 15:50:35;;;;;;;2.67;1.52;;;22.40;51.40;;;;;;5113631;28;20568;-39
2021/05/18 15:53:02;;;;;;;2.10;1.45;;;22.40;51.40;;;;;;5111756;28;20120;-39
2021/05/18 15:55:29;;;;;;;3.03;1.20;;;22.40;51.40;;;;;;5113473;28;20139;-39
2021/05/18 15:57:56;;;;;;;1.77;1.20;;;22.40;51.40;;;;;;5112801;28;20638;-40
2021/05/18 16:00:23;;;;;;;2.20;1.30;;;22.40;51.40;;;;;;5112988;27;20104;-39
2021/05/18 16:02:51;;;;;;;1.25;0.90;;;22.40;51.40;;;;;;5113509;28;20043;-39
2021/05/18 16:05:18;;;;;;;2.25;1.30;;;22.40;51.50;;;;;;5110998;27;20040;-40
2021/05/18 16:07:52;;;;;;;4.10;1.33;;;22.40;51.40;;;;;;5113312;28;20138;-39
2021/05/18 16:10:19;;;;;;;1.45;1.00;;;22.40;51.40;;;;;;5112510;28;20399;-40
2021/05/18 16:12:46;;;;;;;1.35;1.20;;;22.40;52.10;;;;;;5112345;27;20464;-40
2021/05/18 16:15:13;;;;;;;2.25;1.17;;;22.40;51.50;;;;;;5113165;28;20067;-40
2021/05/18 16:17:40;;;;;;;1.75;1.20;;;22.40;51.50;;;;;;5111456;27;20048;-40
2021/05/18 16:20:09;;;;;;;1.65;1.30;;;22.40;51.50;;;;;;5103221;28;20116;-40
2021/05/18 16:22:36;;;;;;;1.90;1.40;;;22.40;51.50;;;;;;5112735;28;20109;-41
2021/05/18 16:25:03;;;;;;;1.42;1.27;;;22.40;51.50;;;;;;5111014;28;20057;-39
2021/05/18 16:27:31;;;;;;;1.70;1.35;;;22.40;52.10;;;;;;5113051;28;20078;-42
2021/05/18 16:29:58;;;;;;;1.75;1.10;;;22.40;51.50;;;;;;5110985;28;20180;-40
2021/05/18 16:32:25;;;;;;;1.92;1.40;;;22.40;51.50;;;;;;5111624;28;20040;-43
2021/05/18 16:34:52;;;;;;;1.15;1.00;;;22.40;51.60;;;;;;5101444;28;20051;-40
2021/05/18 16:37:19;;;;;;;2.08;1.40;;;22.40;51.50;;;;;;5110533;28;20047;-40
2021/05/18 16:39:47;;;;;;;1.40;1.10;;;22.40;51.60;;;;;;5112717;28;20047;-41
2021/05/18 16:42:14;;;;;;;1.20;1.10;;;22.40;52.20;;;;;;5111566;28;20352;-40
2021/05/18 16:44:41;;;;;;;2.10;1.27;;;22.40;51.60;;;;;;5112225;28;20044;-42
2021/05/18 16:47:08;;;;;;;1.77;1.40;;;22.40;51.60;;;;;;5101151;28;20552;-42
2021/05/18 16:49:36;;;;;;;1.27;1.13;;;22.40;51.60;;;;;;5111307;28;20131;-39
2021/05/18 16:52:03;;;;;;;1.50;1.20;;;22.40;51.70;;;;;;5111434;28;20069;-40
2021/05/18 16:54:30;;;;;;;1.30;1.00;;;22.40;51.70;;;;;;5111883;28;20117;-40
2021/05/18 16:56:58;;;;;;;1.67;1.20;;;22.40;51.70;;;;;;5110971;28;20047;-40
2021/05/18 16:59:25;;;;;;;2.40;1.00;;;22.40;51.70;;;;;;5112328;28;20058;-40
2021/05/18 17:01:52;;;;;;;1.88;1.33;;;22.40;51.70;;;;;;5111028;27;20044;-42
2021/05/18 17:04:19;;;;;;;1.90;1.35;;;22.40;51.70;;;;;;5111894;28;20379;-40
2021/05/18 17:06:49;;;;;;;2.08;1.27;;;22.40;51.70;;;;;;5112055;28;20039;-41
2021/05/18 17:09:17;;;;;;;1.30;1.02;;;22.40;51.70;;;;;;5110502;28;20052;-43
2021/05/18 17:11:44;;;;;;;1.40;1.10;;;22.40;51.70;;;;;;5112214;28;20521;-41
2021/05/18 17:14:12;;;;;;;1.50;1.27;;;22.30;51.70;;;;;;5110849;27;20040;-42
2021/05/18 17:16:40;;;;;;;1.70;1.10;;;22.30;51.70;;;;;;5111942;28;20056;-43
2021/05/18 17:19:08;;;;;;;1.40;1.10;;;22.30;51.70;;;;;;5111979;28;20123;-40
2021/05/18 17:21:38;;;;;;;1.48;1.10;;;22.40;51.80;;;;;;5111928;27;20055;-41
2021/05/18 17:24:08;;;;;;;1.58;1.20;;;22.30;51.80;;;;;;5112000;28;20083;-40
2021/05/18 17:26:35;;;;;;;3.15;1.20;;;22.40;51.80;;;;;;5110186;28;20126;-42
2021/05/18 17:29:04;;;;;;;1.60;0.98;;;22.30;51.70;;;;;;5110687;28;20124;-42
2021/05/18 17:31:32;;;;;;;1.55;1.08;;;22.30;51.70;;;;;;5111882;28;20052;-42
2021/05/18 17:33:59;;;;;;;2.05;0.98;;;22.30;51.80;;;;;;5109898;27;20082;-40
2021/05/18 17:36:28;;;;;;;1.67;1.20;;;22.30;51.80;;;;;;5101606;28;20457;-41
2021/05/18 17:38:55;;;;;;;1.67;1.27;;;22.30;51.80;;;;;;5098256;28;20503;-40
2021/05/18 17:41:24;;;;;;;1.95;1.55;;;22.30;51.80;;;;;;5110446;28;20449;-41
2021/05/18 17:43:55;;;;;;;1.75;1.05;;;22.30;51.80;;;;;;5111782;28;20100;-41
2021/05/18 17:46:32;;;;;;;2.33;1.10;;;22.30;51.80;;;;;;5108487;28;20075;-41
2021/05/18 17:49:00;;;;;;;4.35;1.40;;;22.30;51.80;;;;;;5110821;27;20487;-44
2021/05/18 17:51:27;;;;;;;3.45;1.05;;;22.30;51.80;;;;;;5100457;28;20097;-41